Portada
METAR-TAF:

METAR-TAF

Aeroports :

Accra, Ghana

latitud: 05-36N, longitud: 000-10W, altitud: 68 m

Observació

L'informe es va fer fa 46 minuts, a les 00:00 UTC
Vent 7 kt del Oest/Nord-Oest
Temperatura 26°C
Humitat 89%
Pressió 1011 hPa
Visibilitat 10 km o més
Escasses núvols a una alçada de 1800 ft

METAR: DGAA 260000Z 29007KT 9999 FEW018 26/24 Q1011 NOSIG

Hora: 00:46 (00:46 UTC)

Pronòstic

L'informe es va fer fa 1 hora i 46 minuts, a les 23:00 UTC
Pronòstic vàlid del 26 a les 00 UTC al 27 a les 06 UTC
Vent 5 kt del Oest
Visibilitat 10 km o més
sense núvols per sota de 1500 mi sense presència de cumulonimbus.
Evolucionant progressivament
entre 26 i 71 UTC
Vent 10 kt del Sud
Probabilitat 30% :
Temporalment
l' 26 a les 15 UTC al 26 a les 19 UTC
Escasses núvols a una alçada de 3000 ft, Cumulonimbus.
tempesta

TAF: DGAA 252300Z 2600/2706 27005KT CAVOK BECMG 26711/2613 19010KT PROB30 TEMPO 2615/2619 TS FEW030CB

Observacions i pronòstics meteorològics de més de 4000 aeroports (METAR i TAF).

Les estacions disponibles són els punts grocs i vermells al mapa.

Posi el ratolí al punt desitjat per veure el nom de l'estació.

Feu clic per veure les observacions i els pronòstics meteorològics.

Per canviar el mapa: feu clic els botons verds amb una creu de color negre per apropar; al botó verd amb un guió per allunyar la imatge; o en les fletxes verdes per a mapes adjacents.


METAR-TAF: